createdAt,value
2022-09-12T00:01:13.029Z,86.23
2022-09-12T00:03:40.338Z,86.09
2022-09-12T00:06:22.553Z,85.77
2022-09-12T00:08:50.179Z,85.52
2022-09-12T00:11:16.939Z,86.02
2022-09-12T00:13:43.860Z,86.01
2022-09-12T00:16:21.762Z,85.94
2022-09-12T00:18:49.531Z,85.83
2022-09-12T00:21:17.933Z,85.83
2022-09-12T00:23:44.793Z,86.10
2022-09-12T00:26:11.621Z,85.95
2022-09-12T00:28:39.536Z,85.93
2022-09-12T00:31:09.066Z,85.63
2022-09-12T00:33:36.371Z,85.68
2022-09-12T00:36:12.870Z,85.25
2022-09-12T00:38:42.034Z,84.70
2022-09-12T00:41:17.259Z,84.60
2022-09-12T00:43:47.103Z,84.82
2022-09-12T00:46:41.716Z,84.37
2022-09-12T00:49:23.021Z,84.60
2022-09-12T00:52:05.833Z,84.47
2022-09-12T00:54:38.800Z,84.37
2022-09-12T00:57:09.573Z,84.79
2022-09-12T00:59:44.722Z,84.54
2022-09-12T01:02:11.833Z,84.91
2022-09-12T01:04:41.284Z,85.09
2022-09-12T01:07:08.746Z,85.31
2022-09-12T01:09:36.614Z,85.03
2022-09-12T01:12:04.083Z,85.29
2022-09-12T01:14:31.750Z,85.37
2022-09-12T01:16:58.478Z,85.13
2022-09-12T01:19:43.294Z,85.49
2022-09-12T01:22:59.510Z,85.13
2022-09-12T01:25:55.100Z,85.29
2022-09-12T01:28:49.409Z,84.90
2022-09-12T01:31:19.138Z,84.71
2022-09-12T01:33:59.838Z,84.68
2022-09-12T01:36:46.121Z,84.64
2022-09-12T01:39:32.811Z,84.17
2022-09-12T01:42:31.616Z,85.03
2022-09-12T01:45:33.717Z,85.20
2022-09-12T01:48:10.801Z,85.53
2022-09-12T01:50:50.686Z,85.38
2022-09-12T01:53:29.710Z,84.15
2022-09-12T01:56:02.976Z,84.37
2022-09-12T01:58:42.054Z,84.78
2022-09-12T02:01:15.784Z,84.65
2022-09-12T02:03:50.903Z,84.56
2022-09-12T02:06:33.596Z,84.51
2022-09-12T02:09:29.173Z,84.05
2022-09-12T02:12:01.427Z,84.15
2022-09-12T02:14:45.133Z,83.98
2022-09-12T02:17:15.469Z,83.48
2022-09-12T02:20:06.877Z,83.13
2022-09-12T02:22:37.404Z,83.26
2022-09-12T02:25:07.554Z,83.16
2022-09-12T02:27:41.446Z,83.38
2022-09-12T02:30:09.242Z,83.60
2022-09-12T02:32:58.897Z,83.65
2022-09-12T02:35:33.899Z,84.04
2022-09-12T02:38:12.562Z,83.81
2022-09-12T02:40:39.234Z,84.20
2022-09-12T02:43:06.481Z,84.32
2022-09-12T02:45:35.499Z,84.13
2022-09-12T02:48:12.779Z,83.97
2022-09-12T02:50:40.699Z,83.94
2022-09-12T02:53:09.319Z,83.64
2022-09-12T02:55:38.071Z,84.03
2022-09-12T02:58:10.542Z,83.79
2022-09-12T03:00:51.066Z,83.20
2022-09-12T03:03:48.184Z,82.03
2022-09-12T03:06:21.671Z,82.02
2022-09-12T03:08:55.656Z,81.25
2022-09-12T03:11:46.421Z,80.85
2022-09-12T03:14:35.776Z,80.57
2022-09-12T03:17:02.209Z,79.27
2022-09-12T03:19:31.462Z,79.39
2022-09-12T03:22:04.308Z,79.35
2022-09-12T03:24:43.295Z,78.53
2022-09-12T03:27:25.880Z,77.90
2022-09-12T03:29:53.690Z,78.27
2022-09-12T03:32:20.142Z,78.55
2022-09-12T03:34:46.620Z,79.15
2022-09-12T03:37:13.072Z,79.38
2022-09-12T03:39:39.576Z,79.73
2022-09-12T03:42:06.892Z,79.81
2022-09-12T03:44:33.358Z,80.00
2022-09-12T03:46:59.828Z,79.18
2022-09-12T03:49:26.297Z,79.67
2022-09-12T03:51:52.758Z,79.65
2022-09-12T03:54:19.259Z,79.98
2022-09-12T03:56:45.730Z,79.77
2022-09-12T03:59:12.212Z,80.62
2022-09-12T04:01:38.670Z,80.61
2022-09-12T04:04:05.342Z,80.71
2022-09-12T04:06:31.842Z,80.75
2022-09-12T04:08:58.665Z,81.02
2022-09-12T04:11:25.257Z,80.85
2022-09-12T04:13:52.027Z,81.35
2022-09-12T04:16:19.487Z,80.92
2022-09-12T04:18:46.498Z,80.95
2022-09-12T04:21:19.351Z,80.95
2022-09-12T04:23:45.884Z,79.72
2022-09-12T04:26:13.865Z,79.75
2022-09-12T04:28:41.447Z,79.74
2022-09-12T04:31:12.284Z,79.31
2022-09-12T04:33:39.452Z,78.98
2022-09-12T04:36:08.388Z,78.87
2022-09-12T04:38:36.247Z,77.18
2022-09-12T04:41:23.776Z,78.14
2022-09-12T04:43:55.468Z,77.61
2022-09-12T04:46:21.923Z,78.24
2022-09-12T04:48:52.219Z,78.10
2022-09-12T04:51:25.997Z,78.10
2022-09-12T04:53:53.954Z,78.42
2022-09-12T04:56:21.855Z,78.61
2022-09-12T04:58:49.062Z,78.54
2022-09-12T05:01:21.150Z,78.24
2022-09-12T05:03:49.438Z,77.73
2022-09-12T05:06:21.657Z,77.88
2022-09-12T05:08:48.678Z,78.11
2022-09-12T05:11:22.703Z,78.51
2022-09-12T05:13:52.004Z,78.89
2022-09-12T05:16:19.647Z,78.30
2022-09-12T05:18:47.329Z,77.73
2022-09-12T05:21:16.588Z,77.67
2022-09-12T05:23:42.992Z,76.93
2022-09-12T05:26:13.397Z,77.58
2022-09-12T05:28:40.374Z,77.41
2022-09-12T05:31:10.748Z,77.74
2022-09-12T05:33:38.683Z,77.60
2022-09-12T05:36:07.750Z,77.00
2022-09-12T05:38:37.475Z,76.45
2022-09-12T05:41:17.091Z,76.40
2022-09-12T05:43:45.222Z,75.89
2022-09-12T05:46:16.921Z,74.48
2022-09-12T05:48:45.496Z,74.48
2022-09-12T05:51:17.515Z,73.91
2022-09-12T05:53:44.012Z,73.92
2022-09-12T05:56:19.667Z,74.15
2022-09-12T05:58:48.342Z,73.42
2022-09-12T06:01:17.984Z,73.89
2022-09-12T06:03:47.224Z,73.85
2022-09-12T06:06:14.266Z,72.86
2022-09-12T06:08:43.850Z,73.56
2022-09-12T06:11:13.553Z,73.38
2022-09-12T06:13:42.229Z,72.56
2022-09-12T06:16:11.523Z,72.66
2022-09-12T06:18:39.633Z,72.48
2022-09-12T06:21:08.758Z,72.53
2022-09-12T06:23:35.413Z,72.09
2022-09-12T06:26:02.568Z,72.02
2022-09-12T06:28:29.130Z,73.27
2022-09-12T06:31:04.573Z,72.76
2022-09-12T06:33:35.481Z,72.45
2022-09-12T06:36:06.944Z,71.79
2022-09-12T06:38:36.858Z,71.16
2022-09-12T06:41:05.381Z,70.51
2022-09-12T06:43:32.402Z,70.15
2022-09-12T06:45:59.346Z,70.48
2022-09-12T06:48:26.109Z,69.64
2022-09-12T06:51:01.101Z,69.03
2022-09-12T06:53:29.120Z,67.99
2022-09-12T06:56:00.562Z,67.51
2022-09-12T06:58:28.095Z,67.06
2022-09-12T07:01:03.553Z,65.40
2022-09-12T07:03:30.612Z,67.03
2022-09-12T07:05:57.262Z,66.62
2022-09-12T07:08:24.026Z,66.05
2022-09-12T07:10:50.506Z,66.80
2022-09-12T07:13:16.982Z,66.51
2022-09-12T07:15:43.428Z,66.22
2022-09-12T07:18:10.984Z,66.19
2022-09-12T07:20:39.310Z,66.80
2022-09-12T07:23:05.786Z,64.80
2022-09-12T07:25:32.232Z,65.64
2022-09-12T07:27:58.875Z,65.73
2022-09-12T07:30:25.442Z,65.58
2022-09-12T07:32:55.136Z,65.35
2022-09-12T07:35:21.816Z,65.61
2022-09-12T07:37:48.305Z,65.31
2022-09-12T07:40:14.872Z,66.20
2022-09-12T07:42:41.363Z,66.21
2022-09-12T07:45:08.257Z,65.57
2022-09-12T07:47:34.988Z,65.13
2022-09-12T07:50:01.473Z,64.81
2022-09-12T07:52:27.992Z,64.97
2022-09-12T07:54:54.438Z,65.27
2022-09-12T07:57:21.043Z,65.55
2022-09-12T07:59:52.921Z,65.73
2022-09-12T08:02:20.169Z,65.38
2022-09-12T08:04:48.580Z,64.76
2022-09-12T08:07:15.832Z,62.18
2022-09-12T08:09:42.331Z,62.77
2022-09-12T08:12:08.850Z,63.53
2022-09-12T08:14:35.350Z,63.37
2022-09-12T08:17:01.829Z,63.96
2022-09-12T08:19:28.290Z,64.52
2022-09-12T08:21:54.760Z,64.59
2022-09-12T08:24:21.251Z,63.41
2022-09-12T08:26:47.734Z,62.88
2022-09-12T08:29:14.503Z,63.93
2022-09-12T08:31:42.552Z,61.93
2022-09-12T08:34:09.501Z,62.92
2022-09-12T08:36:36.312Z,61.89
2022-09-12T08:39:06.303Z,62.31
2022-09-12T08:41:44.559Z,62.02
2022-09-12T08:44:39.272Z,62.64
2022-09-12T08:47:05.689Z,61.89
2022-09-12T08:49:42.134Z,59.04
2022-09-12T08:52:17.127Z,59.06
2022-09-12T08:54:45.579Z,59.76
2022-09-12T08:57:14.421Z,60.85
2022-09-12T08:59:46.422Z,60.96
2022-09-12T09:02:38.759Z,60.72
2022-09-12T09:05:21.973Z,61.83
2022-09-12T09:08:35.527Z,63.05
2022-09-12T09:11:18.887Z,63.51
2022-09-12T09:14:22.076Z,62.27
2022-09-12T09:16:51.950Z,62.18
2022-09-12T09:19:30.637Z,60.82
2022-09-12T09:22:07.044Z,61.75
2022-09-12T09:24:41.907Z,61.27
2022-09-12T09:27:40.446Z,61.61
2022-09-12T09:30:19.251Z,61.62
2022-09-12T09:32:56.854Z,61.88
2022-09-12T09:35:44.929Z,62.23
2022-09-12T09:38:29.392Z,60.33
2022-09-12T09:41:14.357Z,61.70
2022-09-12T09:43:40.889Z,61.15
2022-09-12T09:46:07.731Z,61.21
2022-09-12T09:48:55.135Z,60.25
2022-09-12T09:51:28.412Z,60.26
2022-09-12T09:54:01.636Z,61.66
2022-09-12T09:56:35.360Z,61.14
2022-09-12T09:59:26.177Z,60.17
2022-09-12T10:02:00.594Z,59.21
2022-09-12T10:04:41.108Z,59.27
2022-09-12T10:07:19.456Z,58.74
2022-09-12T10:10:15.814Z,58.10
2022-09-12T10:12:42.868Z,59.06
2022-09-12T10:15:25.732Z,59.23
2022-09-12T10:17:52.718Z,58.44
2022-09-12T10:20:31.529Z,59.67
2022-09-12T10:23:04.032Z,59.12
2022-09-12T10:25:30.513Z,57.91
2022-09-12T10:28:01.141Z,58.17
2022-09-12T10:30:28.700Z,59.02
2022-09-12T10:33:07.605Z,56.39
2022-09-12T10:35:45.749Z,56.36
2022-09-12T10:38:24.584Z,56.03
2022-09-12T10:41:03.600Z,56.66
2022-09-12T10:43:33.136Z,56.71
2022-09-12T10:46:19.606Z,55.08
2022-09-12T10:48:51.837Z,55.33
2022-09-12T10:51:24.191Z,55.07
2022-09-12T10:53:53.678Z,53.88
2022-09-12T10:56:30.855Z,54.09
2022-09-12T10:59:09.326Z,54.56
2022-09-12T11:01:41.920Z,55.40
2022-09-12T11:04:17.167Z,55.76
2022-09-12T11:06:58.656Z,55.55
2022-09-12T11:09:33.393Z,52.45
2022-09-12T11:12:17.312Z,53.95
2022-09-12T11:14:54.484Z,54.24
2022-09-12T11:17:55.322Z,55.00
2022-09-12T11:20:41.718Z,54.40
2022-09-12T11:23:28.324Z,55.09
2022-09-12T11:26:44.540Z,55.67
2022-09-12T11:29:29.348Z,54.09
2022-09-12T11:32:07.774Z,53.30
2022-09-12T11:34:40.202Z,53.45
2022-09-12T11:37:11.019Z,53.92
2022-09-12T11:39:40.480Z,53.04
2022-09-12T11:42:16.940Z,52.74
2022-09-12T11:44:47.598Z,52.63
2022-09-12T11:47:15.058Z,52.63
2022-09-12T11:49:47.594Z,50.53
2022-09-12T11:52:19.900Z,51.21
2022-09-12T11:54:57.893Z,51.14
2022-09-12T11:57:55.875Z,52.39
2022-09-12T12:00:24.445Z,52.63
2022-09-12T12:03:14.647Z,51.94
2022-09-12T12:05:52.106Z,52.47
2022-09-12T12:08:20.724Z,51.96
2022-09-12T12:10:53.109Z,51.67
2022-09-12T12:13:26.877Z,51.84
2022-09-12T12:15:58.375Z,52.90
2022-09-12T12:18:28.438Z,50.29
2022-09-12T12:20:57.259Z,49.91
2022-09-12T12:23:33.645Z,50.56
2022-09-12T12:26:03.251Z,50.34
2022-09-12T12:28:38.634Z,50.60
2022-09-12T12:31:05.736Z,51.01
2022-09-12T12:33:32.258Z,51.61
2022-09-12T12:35:59.466Z,51.96
2022-09-12T12:38:34.187Z,52.20
2022-09-12T12:41:19.059Z,51.85
2022-09-12T12:43:50.232Z,50.92
2022-09-12T12:46:18.921Z,51.22
2022-09-12T12:48:48.597Z,51.07
2022-09-12T12:51:17.350Z,51.28
2022-09-12T12:53:44.012Z,51.20
2022-09-12T12:56:43.647Z,50.58
2022-09-12T12:59:29.460Z,51.17
2022-09-12T13:01:58.494Z,50.98
2022-09-12T13:04:29.796Z,51.37
2022-09-12T13:07:08.751Z,51.62
2022-09-12T13:09:44.139Z,51.82
2022-09-12T13:12:23.927Z,51.82
2022-09-12T13:14:54.654Z,52.05
2022-09-12T13:17:39.995Z,52.41
2022-09-12T13:20:28.308Z,51.47
2022-09-12T13:22:55.767Z,50.99
2022-09-12T13:25:25.503Z,51.94
2022-09-12T13:28:18.479Z,50.41
2022-09-12T13:31:24.190Z,51.65
2022-09-12T13:33:57.990Z,52.14
2022-09-12T13:36:46.425Z,52.92
2022-09-12T13:39:30.003Z,53.24
2022-09-12T13:42:08.602Z,52.64
2022-09-12T13:44:44.612Z,52.54
2022-09-12T13:47:17.099Z,52.97
2022-09-12T13:49:44.230Z,53.13
2022-09-12T13:52:22.395Z,52.59
2022-09-12T13:54:53.464Z,51.74
2022-09-12T13:57:38.087Z,52.09
2022-09-12T14:00:19.929Z,51.60
2022-09-12T14:02:50.304Z,51.76
2022-09-12T14:05:22.153Z,51.86
2022-09-12T14:07:54.613Z,51.71
2022-09-12T14:10:28.489Z,51.60
2022-09-12T14:12:56.621Z,52.72
2022-09-12T14:15:30.103Z,52.73
2022-09-12T14:18:03.233Z,52.44
2022-09-12T14:20:34.667Z,52.90
2022-09-12T14:23:06.535Z,52.35
2022-09-12T14:25:39.114Z,52.55
2022-09-12T14:28:06.174Z,51.54
2022-09-12T14:30:37.342Z,51.85
2022-09-12T14:33:09.762Z,52.17
2022-09-12T14:35:43.396Z,51.75
2022-09-12T14:38:16.212Z,52.49
2022-09-12T14:40:59.101Z,52.28
2022-09-12T14:43:29.498Z,52.06
2022-09-12T14:46:02.275Z,52.63
2022-09-12T14:48:33.026Z,53.02
2022-09-12T14:50:59.909Z,53.72
2022-09-12T14:53:32.526Z,53.49
2022-09-12T14:56:11.672Z,51.80
2022-09-12T14:58:39.796Z,53.15
2022-09-12T15:01:06.348Z,53.56
2022-09-12T15:03:49.579Z,52.09
2022-09-12T15:06:28.478Z,52.15
2022-09-12T15:08:57.390Z,52.04
2022-09-12T15:11:24.153Z,51.93
2022-09-12T15:13:52.170Z,52.61
2022-09-12T15:16:18.871Z,52.96
2022-09-12T15:18:45.596Z,52.76
2022-09-12T15:21:16.625Z,52.72
2022-09-12T15:23:43.102Z,53.32
2022-09-12T15:26:12.646Z,53.58
2022-09-12T15:28:39.330Z,53.82
2022-09-12T15:31:11.870Z,54.10
2022-09-12T15:33:38.479Z,54.41
2022-09-12T15:36:13.421Z,54.47
2022-09-12T15:38:39.932Z,54.22
2022-09-12T15:41:11.456Z,54.34
2022-09-12T15:43:37.936Z,53.39
2022-09-12T15:46:06.793Z,52.87
2022-09-12T15:48:33.415Z,52.94
2022-09-12T15:51:01.754Z,53.05
2022-09-12T15:53:28.313Z,52.70
2022-09-12T15:55:54.766Z,52.96
2022-09-12T15:58:21.265Z,52.60
2022-09-12T16:00:47.766Z,52.93
2022-09-12T16:03:24.375Z,53.08
2022-09-12T16:05:56.347Z,53.51
2022-09-12T16:08:23.183Z,53.85
2022-09-12T16:10:55.918Z,53.75
2022-09-12T16:13:25.980Z,53.85
2022-09-12T16:15:56.263Z,53.94
2022-09-12T16:18:22.774Z,53.88
2022-09-12T16:20:52.776Z,54.15
2022-09-12T16:23:19.278Z,53.86
2022-09-12T16:25:46.401Z,54.40
2022-09-12T16:28:12.928Z,54.36
2022-09-12T16:30:39.388Z,54.44
2022-09-12T16:33:05.852Z,54.89
2022-09-12T16:35:32.794Z,55.36
2022-09-12T16:37:59.264Z,55.84
2022-09-12T16:40:25.859Z,56.02
2022-09-12T16:42:52.346Z,55.75
2022-09-12T16:45:18.796Z,55.68
2022-09-12T16:47:45.272Z,56.35
2022-09-12T16:50:11.806Z,56.93
2022-09-12T16:52:38.299Z,57.54
2022-09-12T16:55:05.237Z,57.09
2022-09-12T16:57:32.914Z,57.57
2022-09-12T16:59:59.381Z,58.35
2022-09-12T17:02:26.538Z,58.97
2022-09-12T17:04:53.064Z,59.76
2022-09-12T17:07:19.902Z,60.47
2022-09-12T17:09:48.069Z,61.53
2022-09-12T17:12:14.830Z,61.77
2022-09-12T17:14:41.313Z,62.35
2022-09-12T17:17:07.816Z,63.41
2022-09-12T17:19:34.326Z,64.17
2022-09-12T17:22:01.117Z,64.27
2022-09-12T17:24:27.678Z,65.03
2022-09-12T17:26:54.248Z,65.60
2022-09-12T17:29:21.062Z,65.66
2022-09-12T17:31:48.172Z,65.90
2022-09-12T17:34:16.186Z,66.81
2022-09-12T17:36:45.677Z,66.55
2022-09-12T17:39:13.652Z,66.54
2022-09-12T17:41:41.799Z,67.08
2022-09-12T17:44:11.431Z,66.74
2022-09-12T17:46:39.148Z,66.98
2022-09-12T17:49:15.699Z,66.71
2022-09-12T17:51:43.880Z,66.86
2022-09-12T17:54:18.372Z,66.99
2022-09-12T17:56:46.585Z,67.02
2022-09-12T17:59:21.869Z,66.70
2022-09-12T18:02:07.465Z,67.27
2022-09-12T18:04:34.083Z,67.49
2022-09-12T18:07:00.666Z,67.40
2022-09-12T18:09:28.129Z,67.45
2022-09-12T18:11:54.870Z,67.54
2022-09-12T18:14:21.891Z,67.57
2022-09-12T18:16:48.843Z,67.79
2022-09-12T18:19:15.845Z,68.45
2022-09-12T18:21:42.375Z,68.88
2022-09-12T18:24:09.835Z,68.86
2022-09-12T18:26:37.029Z,68.90
2022-09-12T18:29:03.772Z,68.73
2022-09-12T18:31:31.100Z,68.94
2022-09-12T18:34:02.680Z,69.01
2022-09-12T18:36:30.760Z,69.35
2022-09-12T18:38:58.739Z,69.77
2022-09-12T18:41:26.203Z,69.95
2022-09-12T18:43:57.971Z,70.02
2022-09-12T18:46:25.655Z,70.62
2022-09-12T18:48:52.734Z,70.90
2022-09-12T18:51:21.621Z,71.24
2022-09-12T18:53:52.131Z,71.21
2022-09-12T18:56:19.684Z,71.37
2022-09-12T18:58:50.538Z,71.41
2022-09-12T19:01:20.430Z,71.50
2022-09-12T19:03:47.498Z,71.72
2022-09-12T19:06:19.790Z,72.07
2022-09-12T19:08:46.615Z,72.12
2022-09-12T19:11:13.915Z,72.14
2022-09-12T19:13:42.767Z,72.13
2022-09-12T19:16:13.753Z,72.61
2022-09-12T19:18:41.207Z,72.78
2022-09-12T19:21:13.431Z,72.57
2022-09-12T19:23:40.024Z,72.48
2022-09-12T19:26:09.914Z,72.69
2022-09-12T19:28:36.686Z,72.77
2022-09-12T19:31:08.459Z,72.61
2022-09-12T19:33:35.632Z,72.86
2022-09-12T19:36:21.948Z,73.31
2022-09-12T19:38:54.667Z,73.27
2022-09-12T19:41:21.533Z,72.99
2022-09-12T19:43:48.051Z,72.85
2022-09-12T19:46:17.446Z,73.23
2022-09-12T19:48:44.996Z,73.68
2022-09-12T19:51:12.030Z,74.04
2022-09-12T19:53:39.033Z,74.13
2022-09-12T19:56:05.957Z,74.17
2022-09-12T19:58:37.119Z,74.27
2022-09-12T20:01:12.647Z,74.11
2022-09-12T20:03:40.147Z,74.26
2022-09-12T20:06:09.342Z,74.04
2022-09-12T20:08:37.332Z,74.26
2022-09-12T20:11:04.394Z,74.41
2022-09-12T20:13:30.880Z,73.94
2022-09-12T20:16:04.899Z,74.02
2022-09-12T20:18:31.384Z,74.37
2022-09-12T20:20:58.017Z,74.59
2022-09-12T20:23:24.492Z,74.73
2022-09-12T20:25:51.340Z,74.83
2022-09-12T20:28:17.796Z,74.73
2022-09-12T20:30:44.263Z,74.83
2022-09-12T20:33:10.776Z,74.83
2022-09-12T20:35:37.234Z,74.31
2022-09-12T20:38:03.752Z,74.71
2022-09-12T20:40:30.201Z,74.90
2022-09-12T20:42:56.661Z,74.73
2022-09-12T20:45:23.120Z,74.85
2022-09-12T20:47:49.644Z,74.91
2022-09-12T20:50:16.185Z,74.74
2022-09-12T20:52:42.640Z,74.88
2022-09-12T20:55:09.923Z,74.80
2022-09-12T20:57:36.434Z,74.44
2022-09-12T21:00:03.467Z,74.95
2022-09-12T21:02:30.083Z,75.45
2022-09-12T21:04:57.337Z,76.17
2022-09-12T21:07:23.844Z,75.82
2022-09-12T21:09:50.350Z,76.66
2022-09-12T21:12:16.803Z,76.13
2022-09-12T21:14:43.268Z,76.62
2022-09-12T21:17:09.752Z,76.21
2022-09-12T21:19:36.289Z,76.40
2022-09-12T21:22:02.988Z,75.84
2022-09-12T21:24:29.685Z,76.04
2022-09-12T21:26:56.866Z,75.75
2022-09-12T21:29:25.759Z,75.83
2022-09-12T21:31:52.260Z,75.70
2022-09-12T21:34:18.791Z,75.78
2022-09-12T21:36:45.265Z,76.20
2022-09-12T21:39:11.734Z,75.96
2022-09-12T21:41:38.266Z,75.87
2022-09-12T21:44:04.790Z,75.44
2022-09-12T21:46:31.295Z,75.70
2022-09-12T21:48:57.778Z,75.68
2022-09-12T21:51:24.274Z,76.00
2022-09-12T21:53:50.779Z,75.46
2022-09-12T21:56:17.546Z,75.56
2022-09-12T21:58:44.096Z,75.44
2022-09-12T22:01:12.358Z,76.09
2022-09-12T22:03:39.241Z,75.72
2022-09-12T22:06:07.030Z,75.78
2022-09-12T22:08:34.800Z,76.53
2022-09-12T22:11:08.006Z,77.20
2022-09-12T22:13:35.314Z,77.73
2022-09-12T22:16:03.468Z,78.03
2022-09-12T22:18:32.796Z,77.80
2022-09-12T22:21:05.223Z,78.13
2022-09-12T22:23:50.326Z,78.12
2022-09-12T22:26:17.103Z,77.75
2022-09-12T22:28:44.541Z,77.71
2022-09-12T22:31:12.381Z,77.75
2022-09-12T22:33:39.922Z,77.55
2022-09-12T22:36:07.673Z,76.71
2022-09-12T22:38:34.174Z,76.65
2022-09-12T22:41:07.114Z,76.28
2022-09-12T22:43:34.726Z,76.60
2022-09-12T22:46:01.681Z,76.71
2022-09-12T22:48:28.213Z,77.02
2022-09-12T22:50:54.706Z,76.88
2022-09-12T22:53:21.185Z,76.40
2022-09-12T22:55:47.971Z,76.92
2022-09-12T22:58:14.896Z,76.91
2022-09-12T23:00:46.065Z,76.55
2022-09-12T23:03:12.730Z,76.35
2022-09-12T23:05:39.234Z,76.17
2022-09-12T23:08:05.712Z,76.92
2022-09-12T23:10:35.522Z,76.36
2022-09-12T23:13:02.096Z,76.31
2022-09-12T23:15:28.576Z,76.61
2022-09-12T23:17:55.021Z,76.46
2022-09-12T23:20:21.690Z,76.91
2022-09-12T23:22:48.196Z,76.66
2022-09-12T23:25:14.985Z,77.05
2022-09-12T23:27:42.504Z,77.21
2022-09-12T23:30:09.562Z,77.20
2022-09-12T23:32:36.683Z,76.95
2022-09-12T23:35:04.016Z,77.15
2022-09-12T23:37:30.468Z,76.99
2022-09-12T23:39:56.980Z,77.34
2022-09-12T23:42:23.490Z,77.11
2022-09-12T23:44:49.950Z,77.64
2022-09-12T23:47:18.458Z,77.28
2022-09-12T23:49:45.834Z,77.38
2022-09-12T23:52:12.328Z,76.97
2022-09-12T23:54:38.804Z,77.20
2022-09-12T23:57:05.303Z,77.09
2022-09-12T23:59:31.837Z,76.97
